sensor_id;sensor_type;location;lat;lon;timestamp;temperature;humidity
30001;DHT22;16845;48.670;9.000;2022-10-31T00:00:46;11.80;99.90
30001;DHT22;16845;48.670;9.000;2022-10-31T00:03:14;11.90;99.90
30001;DHT22;16845;48.670;9.000;2022-10-31T00:05:43;11.80;99.90
30001;DHT22;16845;48.670;9.000;2022-10-31T00:08:11;11.80;99.90
30001;DHT22;16845;48.670;9.000;2022-10-31T00:10:39;11.70;99.90
30001;DHT22;16845;48.670;9.000;2022-10-31T00:13:07;11.70;99.90
30001;DHT22;16845;48.670;9.000;2022-10-31T00:15:36;11.70;99.90
30001;DHT22;16845;48.670;9.000;2022-10-31T00:18:07;11.60;99.90
30001;DHT22;16845;48.670;9.000;2022-10-31T00:20:35;11.60;99.90
30001;DHT22;16845;48.670;9.000;2022-10-31T00:23:03;11.60;99.90
30001;DHT22;16845;48.670;9.000;2022-10-31T00:25:34;11.60;99.90
30001;DHT22;16845;48.670;9.000;2022-10-31T00:28:03;11.50;99.90
30001;DHT22;16845;48.670;9.000;2022-10-31T00:30:31;11.60;99.90
30001;DHT22;16845;48.670;9.000;2022-10-31T00:32:59;11.50;99.90
30001;DHT22;16845;48.670;9.000;2022-10-31T00:35:29;11.50;99.90
30001;DHT22;16845;48.670;9.000;2022-10-31T00:37:57;11.50;99.90
30001;DHT22;16845;48.670;9.000;2022-10-31T00:40:25;11.40;99.90
30001;DHT22;16845;48.670;9.000;2022-10-31T00:42:53;11.30;99.90
30001;DHT22;16845;48.670;9.000;2022-10-31T00:45:21;11.20;99.90
30001;DHT22;16845;48.670;9.000;2022-10-31T00:47:50;11.20;99.90
30001;DHT22;16845;48.670;9.000;2022-10-31T00:50:17;11.20;99.90
30001;DHT22;16845;48.670;9.000;2022-10-31T00:52:47;11.20;99.90
30001;DHT22;16845;48.670;9.000;2022-10-31T00:55:15;11.30;99.90
30001;DHT22;16845;48.670;9.000;2022-10-31T00:57:45;11.20;99.90
30001;DHT22;16845;48.670;9.000;2022-10-31T01:00:14;11.30;99.90
30001;DHT22;16845;48.670;9.000;2022-10-31T01:02:42;11.20;99.90
30001;DHT22;16845;48.670;9.000;2022-10-31T01:05:10;11.20;99.90
30001;DHT22;16845;48.670;9.000;2022-10-31T01:07:38;11.20;99.90
30001;DHT22;16845;48.670;9.000;2022-10-31T01:10:10;11.20;99.90
30001;DHT22;16845;48.670;9.000;2022-10-31T01:12:38;11.20;99.90
30001;DHT22;16845;48.670;9.000;2022-10-31T01:15:07;11.20;99.90
30001;DHT22;16845;48.670;9.000;2022-10-31T01:17:35;11.20;99.90
30001;DHT22;16845;48.670;9.000;2022-10-31T01:20:04;11.20;99.90
30001;DHT22;16845;48.670;9.000;2022-10-31T01:22:33;11.10;99.90
30001;DHT22;16845;48.670;9.000;2022-10-31T01:25:02;11.10;99.90
30001;DHT22;16845;48.670;9.000;2022-10-31T01:27:32;11.10;99.90
30001;DHT22;16845;48.670;9.000;2022-10-31T01:30:00;11.10;99.90
30001;DHT22;16845;48.670;9.000;2022-10-31T01:32:28;11.10;99.90
30001;DHT22;16845;48.670;9.000;2022-10-31T01:34:56;11.10;99.90
30001;DHT22;16845;48.670;9.000;2022-10-31T01:37:24;11.10;99.90
30001;DHT22;16845;48.670;9.000;2022-10-31T01:39:52;11.10;99.90
30001;DHT22;16845;48.670;9.000;2022-10-31T01:42:21;11.10;99.90
30001;DHT22;16845;48.670;9.000;2022-10-31T01:44:59;11.10;99.90
30001;DHT22;16845;48.670;9.000;2022-10-31T01:47:32;11.10;99.90
30001;DHT22;16845;48.670;9.000;2022-10-31T01:50:03;11.10;99.90
30001;DHT22;16845;48.670;9.000;2022-10-31T01:52:35;11.10;99.90
30001;DHT22;16845;48.670;9.000;2022-10-31T01:55:07;11.00;99.90
30001;DHT22;16845;48.670;9.000;2022-10-31T01:57:37;11.00;99.90
30001;DHT22;16845;48.670;9.000;2022-10-31T02:00:10;10.90;99.90
30001;DHT22;16845;48.670;9.000;2022-10-31T02:02:38;10.90;99.90
30001;DHT22;16845;48.670;9.000;2022-10-31T02:05:10;10.90;99.90
30001;DHT22;16845;48.670;9.000;2022-10-31T02:07:42;10.80;99.90
30001;DHT22;16845;48.670;9.000;2022-10-31T02:10:10;10.80;99.90
30001;DHT22;16845;48.670;9.000;2022-10-31T02:12:39;10.80;99.90
30001;DHT22;16845;48.670;9.000;2022-10-31T02:15:10;10.70;99.90
30001;DHT22;16845;48.670;9.000;2022-10-31T02:17:38;10.70;99.90
30001;DHT22;16845;48.670;9.000;2022-10-31T02:20:13;10.60;99.90
30001;DHT22;16845;48.670;9.000;2022-10-31T02:23:13;10.60;99.90
30001;DHT22;16845;48.670;9.000;2022-10-31T02:25:59;10.60;99.90
30001;DHT22;16845;48.670;9.000;2022-10-31T02:28:41;10.60;99.90
30001;DHT22;16845;48.670;9.000;2022-10-31T02:31:23;10.50;99.90
30001;DHT22;16845;48.670;9.000;2022-10-31T02:33:58;10.50;99.90
30001;DHT22;16845;48.670;9.000;2022-10-31T02:36:32;10.50;99.90
30001;DHT22;16845;48.670;9.000;2022-10-31T02:39:11;10.50;99.90
30001;DHT22;16845;48.670;9.000;2022-10-31T02:41:46;10.50;99.90
30001;DHT22;16845;48.670;9.000;2022-10-31T02:44:20;10.50;99.90
30001;DHT22;16845;48.670;9.000;2022-10-31T02:46:54;10.40;99.90
30001;DHT22;16845;48.670;9.000;2022-10-31T02:49:26;10.50;99.90
30001;DHT22;16845;48.670;9.000;2022-10-31T02:51:54;10.50;99.90
30001;DHT22;16845;48.670;9.000;2022-10-31T02:54:24;10.40;99.90
30001;DHT22;16845;48.670;9.000;2022-10-31T02:56:57;10.40;99.90
30001;DHT22;16845;48.670;9.000;2022-10-31T02:59:28;10.30;99.90
30001;DHT22;16845;48.670;9.000;2022-10-31T03:02:12;10.30;99.90
30001;DHT22;16845;48.670;9.000;2022-10-31T03:07:45;10.30;99.90
30001;DHT22;16845;48.670;9.000;2022-10-31T03:10:20;10.20;99.90
30001;DHT22;16845;48.670;9.000;2022-10-31T03:12:59;10.20;99.90
30001;DHT22;16845;48.670;9.000;2022-10-31T03:15:31;10.20;99.90
30001;DHT22;16845;48.670;9.000;2022-10-31T03:18:05;10.20;99.90
30001;DHT22;16845;48.670;9.000;2022-10-31T03:20:39;10.20;99.90
30001;DHT22;16845;48.670;9.000;2022-10-31T03:23:12;10.20;99.90
30001;DHT22;16845;48.670;9.000;2022-10-31T03:25:42;10.20;99.90
30001;DHT22;16845;48.670;9.000;2022-10-31T03:28:12;10.20;99.90
30001;DHT22;16845;48.670;9.000;2022-10-31T03:30:47;10.20;99.90
30001;DHT22;16845;48.670;9.000;2022-10-31T03:33:22;10.20;99.90
30001;DHT22;16845;48.670;9.000;2022-10-31T03:35:53;10.20;99.90
30001;DHT22;16845;48.670;9.000;2022-10-31T03:38:23;10.20;99.90
30001;DHT22;16845;48.670;9.000;2022-10-31T03:40:51;10.20;99.90
30001;DHT22;16845;48.670;9.000;2022-10-31T03:43:24;10.20;99.90
30001;DHT22;16845;48.670;9.000;2022-10-31T03:45:54;10.20;99.90
30001;DHT22;16845;48.670;9.000;2022-10-31T03:48:25;10.20;99.90
30001;DHT22;16845;48.670;9.000;2022-10-31T03:51:01;10.10;99.90
30001;DHT22;16845;48.670;9.000;2022-10-31T03:53:34;10.10;99.90
30001;DHT22;16845;48.670;9.000;2022-10-31T03:56:10;10.20;99.90
30001;DHT22;16845;48.670;9.000;2022-10-31T03:58:42;10.20;99.90
30001;DHT22;16845;48.670;9.000;2022-10-31T04:01:15;10.20;99.90
30001;DHT22;16845;48.670;9.000;2022-10-31T04:03:45;10.20;99.90
30001;DHT22;16845;48.670;9.000;2022-10-31T04:06:15;10.20;99.90
30001;DHT22;16845;48.670;9.000;2022-10-31T04:08:48;10.10;99.90
30001;DHT22;16845;48.670;9.000;2022-10-31T04:11:20;10.10;99.90
30001;DHT22;16845;48.670;9.000;2022-10-31T04:13:49;10.10;99.90
30001;DHT22;16845;48.670;9.000;2022-10-31T04:16:18;10.10;99.90
30001;DHT22;16845;48.670;9.000;2022-10-31T04:18:49;10.10;99.90
30001;DHT22;16845;48.670;9.000;2022-10-31T04:21:17;10.00;99.90
30001;DHT22;16845;48.670;9.000;2022-10-31T04:23:45;10.00;99.90
30001;DHT22;16845;48.670;9.000;2022-10-31T04:26:13;10.00;99.90
30001;DHT22;16845;48.670;9.000;2022-10-31T04:28:41;10.00;99.90
30001;DHT22;16845;48.670;9.000;2022-10-31T04:31:11;10.00;99.90
30001;DHT22;16845;48.670;9.000;2022-10-31T04:33:39;10.00;99.90
30001;DHT22;16845;48.670;9.000;2022-10-31T04:36:08;9.90;99.90
30001;DHT22;16845;48.670;9.000;2022-10-31T04:38:37;10.00;99.90
30001;DHT22;16845;48.670;9.000;2022-10-31T04:41:05;9.90;99.90
30001;DHT22;16845;48.670;9.000;2022-10-31T04:43:33;10.00;99.90
30001;DHT22;16845;48.670;9.000;2022-10-31T04:46:01;9.90;99.90
30001;DHT22;16845;48.670;9.000;2022-10-31T04:48:29;9.90;99.90
30001;DHT22;16845;48.670;9.000;2022-10-31T04:51:00;9.90;99.90
30001;DHT22;16845;48.670;9.000;2022-10-31T04:53:30;9.80;99.90
30001;DHT22;16845;48.670;9.000;2022-10-31T04:55:58;9.80;99.90
30001;DHT22;16845;48.670;9.000;2022-10-31T04:58:27;9.80;99.90
30001;DHT22;16845;48.670;9.000;2022-10-31T05:00:56;9.80;99.90
30001;DHT22;16845;48.670;9.000;2022-10-31T05:03:24;9.80;99.90
30001;DHT22;16845;48.670;9.000;2022-10-31T05:05:52;9.80;99.90
30001;DHT22;16845;48.670;9.000;2022-10-31T05:08:19;9.80;99.90
30001;DHT22;16845;48.670;9.000;2022-10-31T05:10:49;9.80;99.90
30001;DHT22;16845;48.670;9.000;2022-10-31T05:13:17;9.80;99.90
30001;DHT22;16845;48.670;9.000;2022-10-31T05:15:44;9.70;99.90
30001;DHT22;16845;48.670;9.000;2022-10-31T05:18:12;9.70;99.90
30001;DHT22;16845;48.670;9.000;2022-10-31T05:20:40;9.70;99.90
30001;DHT22;16845;48.670;9.000;2022-10-31T05:23:08;9.70;99.90
30001;DHT22;16845;48.670;9.000;2022-10-31T05:25:36;9.70;99.90
30001;DHT22;16845;48.670;9.000;2022-10-31T05:28:05;9.70;99.90
30001;DHT22;16845;48.670;9.000;2022-10-31T05:30:34;9.70;99.90
30001;DHT22;16845;48.670;9.000;2022-10-31T05:33:02;9.70;99.90
30001;DHT22;16845;48.670;9.000;2022-10-31T05:35:32;9.70;99.90
30001;DHT22;16845;48.670;9.000;2022-10-31T05:38:00;9.60;99.90
30001;DHT22;16845;48.670;9.000;2022-10-31T05:40:28;9.60;99.90
30001;DHT22;16845;48.670;9.000;2022-10-31T05:42:56;9.60;99.90
30001;DHT22;16845;48.670;9.000;2022-10-31T05:45:27;9.60;99.90
30001;DHT22;16845;48.670;9.000;2022-10-31T05:47:56;9.50;99.90
30001;DHT22;16845;48.670;9.000;2022-10-31T05:50:27;9.50;99.90
30001;DHT22;16845;48.670;9.000;2022-10-31T05:52:57;9.50;99.90
30001;DHT22;16845;48.670;9.000;2022-10-31T05:55:26;9.50;99.90
30001;DHT22;16845;48.670;9.000;2022-10-31T05:57:54;9.50;99.90
30001;DHT22;16845;48.670;9.000;2022-10-31T06:00:24;9.50;99.90
30001;DHT22;16845;48.670;9.000;2022-10-31T06:02:59;9.50;99.90
30001;DHT22;16845;48.670;9.000;2022-10-31T06:05:27;9.50;99.90
30001;DHT22;16845;48.670;9.000;2022-10-31T06:07:55;9.50;99.90
30001;DHT22;16845;48.670;9.000;2022-10-31T06:10:25;9.50;99.90
30001;DHT22;16845;48.670;9.000;2022-10-31T06:12:53;9.50;99.90
30001;DHT22;16845;48.670;9.000;2022-10-31T06:15:21;9.50;99.90
30001;DHT22;16845;48.670;9.000;2022-10-31T06:18:02;9.50;99.90
30001;DHT22;16845;48.670;9.000;2022-10-31T06:20:31;9.50;99.90
30001;DHT22;16845;48.670;9.000;2022-10-31T06:22:59;9.50;99.90
30001;DHT22;16845;48.670;9.000;2022-10-31T06:25:28;9.60;99.90
30001;DHT22;16845;48.670;9.000;2022-10-31T06:27:56;9.60;99.90
30001;DHT22;16845;48.670;9.000;2022-10-31T06:30:24;9.60;99.90
30001;DHT22;16845;48.670;9.000;2022-10-31T06:32:52;9.60;99.90
30001;DHT22;16845;48.670;9.000;2022-10-31T06:35:21;9.60;99.90
30001;DHT22;16845;48.670;9.000;2022-10-31T06:37:53;9.70;99.90
30001;DHT22;16845;48.670;9.000;2022-10-31T06:40:21;9.80;99.90
30001;DHT22;16845;48.670;9.000;2022-10-31T06:42:56;9.80;99.90
30001;DHT22;16845;48.670;9.000;2022-10-31T06:45:24;9.80;99.90
30001;DHT22;16845;48.670;9.000;2022-10-31T06:47:52;9.90;99.90
30001;DHT22;16845;48.670;9.000;2022-10-31T06:50:41;9.90;99.90
30001;DHT22;16845;48.670;9.000;2022-10-31T06:53:09;10.00;99.90
30001;DHT22;16845;48.670;9.000;2022-10-31T06:55:38;10.00;99.90
30001;DHT22;16845;48.670;9.000;2022-10-31T06:58:08;10.10;99.90
30001;DHT22;16845;48.670;9.000;2022-10-31T07:00:37;10.10;99.90
30001;DHT22;16845;48.670;9.000;2022-10-31T07:03:06;10.20;99.90
30001;DHT22;16845;48.670;9.000;2022-10-31T07:05:35;10.30;99.90
30001;DHT22;16845;48.670;9.000;2022-10-31T07:08:06;10.40;99.90
30001;DHT22;16845;48.670;9.000;2022-10-31T07:10:36;10.40;99.90
30001;DHT22;16845;48.670;9.000;2022-10-31T07:13:11;10.50;99.90
30001;DHT22;16845;48.670;9.000;2022-10-31T07:15:40;10.60;99.90
30001;DHT22;16845;48.670;9.000;2022-10-31T07:18:11;10.60;99.90
30001;DHT22;16845;48.670;9.000;2022-10-31T07:20:39;10.70;99.90
30001;DHT22;16845;48.670;9.000;2022-10-31T07:23:09;10.80;99.90
30001;DHT22;16845;48.670;9.000;2022-10-31T07:25:37;10.90;99.90
30001;DHT22;16845;48.670;9.000;2022-10-31T07:28:06;10.90;99.90
30001;DHT22;16845;48.670;9.000;2022-10-31T07:30:34;11.00;99.90
30001;DHT22;16845;48.670;9.000;2022-10-31T07:33:02;11.00;99.90
30001;DHT22;16845;48.670;9.000;2022-10-31T07:35:31;11.00;99.90
30001;DHT22;16845;48.670;9.000;2022-10-31T07:38:10;11.10;99.90
30001;DHT22;16845;48.670;9.000;2022-10-31T07:40:38;11.20;99.90
30001;DHT22;16845;48.670;9.000;2022-10-31T07:43:06;11.20;99.90
30001;DHT22;16845;48.670;9.000;2022-10-31T07:45:39;11.30;99.90
30001;DHT22;16845;48.670;9.000;2022-10-31T07:48:07;11.30;99.90
30001;DHT22;16845;48.670;9.000;2022-10-31T07:50:35;11.40;99.90
30001;DHT22;16845;48.670;9.000;2022-10-31T07:53:05;11.60;99.90
30001;DHT22;16845;48.670;9.000;2022-10-31T07:55:35;11.70;99.90
30001;DHT22;16845;48.670;9.000;2022-10-31T07:58:05;11.70;99.90
30001;DHT22;16845;48.670;9.000;2022-10-31T08:00:34;11.80;99.90
30001;DHT22;16845;48.670;9.000;2022-10-31T08:03:04;11.90;99.90
30001;DHT22;16845;48.670;9.000;2022-10-31T08:05:33;12.00;99.90
30001;DHT22;16845;48.670;9.000;2022-10-31T08:08:02;12.10;99.90
30001;DHT22;16845;48.670;9.000;2022-10-31T08:10:32;12.40;99.90
30001;DHT22;16845;48.670;9.000;2022-10-31T08:13:03;12.40;99.90
30001;DHT22;16845;48.670;9.000;2022-10-31T08:15:31;12.40;99.90
30001;DHT22;16845;48.670;9.000;2022-10-31T08:18:00;12.50;99.90
30001;DHT22;16845;48.670;9.000;2022-10-31T08:20:29;12.50;99.90
30001;DHT22;16845;48.670;9.000;2022-10-31T08:22:58;12.60;99.90
30001;DHT22;16845;48.670;9.000;2022-10-31T08:25:28;12.60;99.90
30001;DHT22;16845;48.670;9.000;2022-10-31T08:28:04;12.60;99.90
30001;DHT22;16845;48.670;9.000;2022-10-31T08:30:35;12.70;99.90
30001;DHT22;16845;48.670;9.000;2022-10-31T08:33:04;12.90;99.90
30001;DHT22;16845;48.670;9.000;2022-10-31T08:35:32;13.10;99.90
30001;DHT22;16845;48.670;9.000;2022-10-31T08:38:01;13.20;99.90
30001;DHT22;16845;48.670;9.000;2022-10-31T08:40:32;13.40;99.90
30001;DHT22;16845;48.670;9.000;2022-10-31T08:43:01;13.60;99.90
30001;DHT22;16845;48.670;9.000;2022-10-31T08:45:32;13.80;99.90
30001;DHT22;16845;48.670;9.000;2022-10-31T08:48:02;13.90;99.90
30001;DHT22;16845;48.670;9.000;2022-10-31T08:50:32;14.10;99.90
30001;DHT22;16845;48.670;9.000;2022-10-31T08:53:01;14.30;99.90
30001;DHT22;16845;48.670;9.000;2022-10-31T08:55:33;14.40;99.90
30001;DHT22;16845;48.670;9.000;2022-10-31T08:58:02;14.50;99.90
30001;DHT22;16845;48.670;9.000;2022-10-31T09:00:32;14.60;99.90
30001;DHT22;16845;48.670;9.000;2022-10-31T09:03:02;14.80;99.90
30001;DHT22;16845;48.670;9.000;2022-10-31T09:05:30;14.90;99.90
30001;DHT22;16845;48.670;9.000;2022-10-31T09:08:00;15.00;99.90
30001;DHT22;16845;48.670;9.000;2022-10-31T09:10:30;14.90;99.90
30001;DHT22;16845;48.670;9.000;2022-10-31T09:13:00;14.70;99.90
30001;DHT22;16845;48.670;9.000;2022-10-31T09:15:28;14.80;99.90
30001;DHT22;16845;48.670;9.000;2022-10-31T09:17:57;14.90;99.90
30001;DHT22;16845;48.670;9.000;2022-10-31T09:20:29;14.80;99.90
30001;DHT22;16845;48.670;9.000;2022-10-31T09:22:57;14.90;99.90
30001;DHT22;16845;48.670;9.000;2022-10-31T09:25:26;14.90;99.90
30001;DHT22;16845;48.670;9.000;2022-10-31T09:27:56;14.90;99.90
30001;DHT22;16845;48.670;9.000;2022-10-31T09:30:27;15.10;99.90
30001;DHT22;16845;48.670;9.000;2022-10-31T09:32:57;15.20;99.90
30001;DHT22;16845;48.670;9.000;2022-10-31T09:35:25;15.30;99.90
30001;DHT22;16845;48.670;9.000;2022-10-31T09:37:54;15.40;99.90
30001;DHT22;16845;48.670;9.000;2022-10-31T09:40:27;15.70;99.90
30001;DHT22;16845;48.670;9.000;2022-10-31T09:43:02;15.60;99.90
30001;DHT22;16845;48.670;9.000;2022-10-31T09:45:37;15.60;99.90
30001;DHT22;16845;48.670;9.000;2022-10-31T09:51:08;15.80;99.90
30001;DHT22;16845;48.670;9.000;2022-10-31T09:53:40;16.10;99.90
30001;DHT22;16845;48.670;9.000;2022-10-31T09:56:12;16.30;99.90
30001;DHT22;16845;48.670;9.000;2022-10-31T09:58:43;16.40;99.90
30001;DHT22;16845;48.670;9.000;2022-10-31T10:01:29;16.40;99.90
30001;DHT22;16845;48.670;9.000;2022-10-31T10:04:08;16.40;99.90
30001;DHT22;16845;48.670;9.000;2022-10-31T10:06:47;16.60;99.90
30001;DHT22;16845;48.670;9.000;2022-10-31T10:09:18;16.90;99.90
30001;DHT22;16845;48.670;9.000;2022-10-31T10:11:55;17.10;99.90
30001;DHT22;16845;48.670;9.000;2022-10-31T10:14:38;17.10;99.90
30001;DHT22;16845;48.670;9.000;2022-10-31T10:17:18;17.00;99.90
30001;DHT22;16845;48.670;9.000;2022-10-31T10:20:10;17.10;99.90
30001;DHT22;16845;48.670;9.000;2022-10-31T10:22:45;17.10;99.90
30001;DHT22;16845;48.670;9.000;2022-10-31T10:25:21;17.20;99.90
30001;DHT22;16845;48.670;9.000;2022-10-31T10:27:58;17.30;99.90
30001;DHT22;16845;48.670;9.000;2022-10-31T10:30:33;17.40;99.90
30001;DHT22;16845;48.670;9.000;2022-10-31T10:33:05;17.60;99.90
30001;DHT22;16845;48.670;9.000;2022-10-31T10:35:40;17.60;99.90
30001;DHT22;16845;48.670;9.000;2022-10-31T10:38:19;17.80;99.90
30001;DHT22;16845;48.670;9.000;2022-10-31T10:40:50;17.70;99.90
30001;DHT22;16845;48.670;9.000;2022-10-31T10:43:26;17.90;99.90
30001;DHT22;16845;48.670;9.000;2022-10-31T10:46:17;18.00;99.90
30001;DHT22;16845;48.670;9.000;2022-10-31T10:49:16;18.00;99.90
30001;DHT22;16845;48.670;9.000;2022-10-31T10:51:50;18.00;99.90
30001;DHT22;16845;48.670;9.000;2022-10-31T10:54:46;18.20;99.90
30001;DHT22;16845;48.670;9.000;2022-10-31T10:57:22;18.10;99.90
30001;DHT22;16845;48.670;9.000;2022-10-31T11:00:12;18.10;99.90
30001;DHT22;16845;48.670;9.000;2022-10-31T11:02:42;18.40;99.90
30001;DHT22;16845;48.670;9.000;2022-10-31T11:05:22;18.80;99.90
30001;DHT22;16845;48.670;9.000;2022-10-31T11:07:52;19.10;99.90
30001;DHT22;16845;48.670;9.000;2022-10-31T11:10:20;19.40;99.90
30001;DHT22;16845;48.670;9.000;2022-10-31T11:13:17;19.50;99.90
30001;DHT22;16845;48.670;9.000;2022-10-31T11:15:56;19.50;99.90
30001;DHT22;16845;48.670;9.000;2022-10-31T11:18:29;19.00;99.90
30001;DHT22;16845;48.670;9.000;2022-10-31T11:21:00;19.20;99.90
30001;DHT22;16845;48.670;9.000;2022-10-31T11:23:31;19.20;99.90
30001;DHT22;16845;48.670;9.000;2022-10-31T11:26:05;18.90;99.90
30001;DHT22;16845;48.670;9.000;2022-10-31T11:28:33;18.80;99.90
30001;DHT22;16845;48.670;9.000;2022-10-31T11:31:07;18.80;99.90
30001;DHT22;16845;48.670;9.000;2022-10-31T11:33:37;18.70;99.90
30001;DHT22;16845;48.670;9.000;2022-10-31T11:36:16;18.70;99.90
30001;DHT22;16845;48.670;9.000;2022-10-31T11:38:48;19.10;99.90
30001;DHT22;16845;48.670;9.000;2022-10-31T11:41:18;19.10;99.90
30001;DHT22;16845;48.670;9.000;2022-10-31T11:43:50;19.30;99.90
30001;DHT22;16845;48.670;9.000;2022-10-31T11:46:21;19.20;99.90
30001;DHT22;16845;48.670;9.000;2022-10-31T11:48:53;19.00;99.90
30001;DHT22;16845;48.670;9.000;2022-10-31T11:51:22;19.00;99.90
30001;DHT22;16845;48.670;9.000;2022-10-31T11:53:54;18.70;99.90
30001;DHT22;16845;48.670;9.000;2022-10-31T11:56:37;18.70;99.90
30001;DHT22;16845;48.670;9.000;2022-10-31T11:59:16;18.70;99.90
30001;DHT22;16845;48.670;9.000;2022-10-31T12:01:47;18.60;99.90
30001;DHT22;16845;48.670;9.000;2022-10-31T12:04:16;18.60;99.90
30001;DHT22;16845;48.670;9.000;2022-10-31T12:06:45;18.70;99.90
30001;DHT22;16845;48.670;9.000;2022-10-31T12:09:19;19.00;99.90
30001;DHT22;16845;48.670;9.000;2022-10-31T12:12:01;19.10;99.90
30001;DHT22;16845;48.670;9.000;2022-10-31T12:14:39;19.10;99.90
30001;DHT22;16845;48.670;9.000;2022-10-31T12:17:14;19.20;99.90
30001;DHT22;16845;48.670;9.000;2022-10-31T12:19:52;19.10;99.90
30001;DHT22;16845;48.670;9.000;2022-10-31T12:22:28;19.20;99.90
30001;DHT22;16845;48.670;9.000;2022-10-31T12:25:17;19.20;99.90
30001;DHT22;16845;48.670;9.000;2022-10-31T12:28:03;19.00;99.90
30001;DHT22;16845;48.670;9.000;2022-10-31T12:30:43;18.80;99.90
30001;DHT22;16845;48.670;9.000;2022-10-31T12:33:24;18.80;99.90
30001;DHT22;16845;48.670;9.000;2022-10-31T12:36:02;18.70;99.90
30001;DHT22;16845;48.670;9.000;2022-10-31T12:38:56;18.70;99.90
30001;DHT22;16845;48.670;9.000;2022-10-31T12:41:38;18.60;99.90
30001;DHT22;16845;48.670;9.000;2022-10-31T12:44:14;18.60;99.90
30001;DHT22;16845;48.670;9.000;2022-10-31T12:46:58;18.50;99.90
30001;DHT22;16845;48.670;9.000;2022-10-31T12:49:39;18.50;99.90
30001;DHT22;16845;48.670;9.000;2022-10-31T12:52:12;18.50;99.90
30001;DHT22;16845;48.670;9.000;2022-10-31T12:54:55;18.40;99.90
30001;DHT22;16845;48.670;9.000;2022-10-31T12:57:30;18.30;99.90
30001;DHT22;16845;48.670;9.000;2022-10-31T13:00:03;18.20;99.90
30001;DHT22;16845;48.670;9.000;2022-10-31T13:02:35;18.30;99.90
30001;DHT22;16845;48.670;9.000;2022-10-31T13:05:13;18.40;99.90
30001;DHT22;16845;48.670;9.000;2022-10-31T13:07:43;18.30;99.90
30001;DHT22;16845;48.670;9.000;2022-10-31T13:10:17;18.30;99.90
30001;DHT22;16845;48.670;9.000;2022-10-31T13:12:50;18.20;99.90
30001;DHT22;16845;48.670;9.000;2022-10-31T13:15:22;18.30;99.90
30001;DHT22;16845;48.670;9.000;2022-10-31T13:17:53;18.30;99.90
30001;DHT22;16845;48.670;9.000;2022-10-31T13:20:26;18.50;99.90
30001;DHT22;16845;48.670;9.000;2022-10-31T13:23:08;18.70;99.90
30001;DHT22;16845;48.670;9.000;2022-10-31T13:25:59;19.10;99.90
30001;DHT22;16845;48.670;9.000;2022-10-31T13:28:35;19.50;99.90
30001;DHT22;16845;48.670;9.000;2022-10-31T13:31:05;20.00;99.90
30001;DHT22;16845;48.670;9.000;2022-10-31T13:33:37;20.30;99.90
30001;DHT22;16845;48.670;9.000;2022-10-31T13:36:15;20.50;99.90
30001;DHT22;16845;48.670;9.000;2022-10-31T13:38:48;20.60;99.90
30001;DHT22;16845;48.670;9.000;2022-10-31T13:41:27;20.40;99.90
30001;DHT22;16845;48.670;9.000;2022-10-31T13:44:02;19.90;99.90
30001;DHT22;16845;48.670;9.000;2022-10-31T13:46:36;19.80;99.90
30001;DHT22;16845;48.670;9.000;2022-10-31T13:49:23;20.00;99.90
30001;DHT22;16845;48.670;9.000;2022-10-31T13:51:52;19.80;99.90
30001;DHT22;16845;48.670;9.000;2022-10-31T13:54:31;19.60;99.90
30001;DHT22;16845;48.670;9.000;2022-10-31T13:56:59;19.50;99.90
30001;DHT22;16845;48.670;9.000;2022-10-31T13:59:31;19.50;99.90
30001;DHT22;16845;48.670;9.000;2022-10-31T14:02:02;19.70;99.90
30001;DHT22;16845;48.670;9.000;2022-10-31T14:04:45;19.70;99.90
30001;DHT22;16845;48.670;9.000;2022-10-31T14:07:15;19.60;99.90
30001;DHT22;16845;48.670;9.000;2022-10-31T14:09:54;19.20;99.90
30001;DHT22;16845;48.670;9.000;2022-10-31T14:12:26;19.00;99.90
30001;DHT22;16845;48.670;9.000;2022-10-31T14:15:00;19.00;99.90
30001;DHT22;16845;48.670;9.000;2022-10-31T14:17:37;18.90;99.90
30001;DHT22;16845;48.670;9.000;2022-10-31T14:20:32;19.00;99.90
30001;DHT22;16845;48.670;9.000;2022-10-31T14:25:53;19.40;99.90
30001;DHT22;16845;48.670;9.000;2022-10-31T14:28:22;19.40;99.90
30001;DHT22;16845;48.670;9.000;2022-10-31T14:31:00;19.20;99.90
30001;DHT22;16845;48.670;9.000;2022-10-31T14:33:29;19.00;99.90
30001;DHT22;16845;48.670;9.000;2022-10-31T14:36:02;18.80;99.90
30001;DHT22;16845;48.670;9.000;2022-10-31T14:38:41;18.60;99.90
30001;DHT22;16845;48.670;9.000;2022-10-31T14:41:25;18.50;99.90
30001;DHT22;16845;48.670;9.000;2022-10-31T14:44:14;18.50;99.90
30001;DHT22;16845;48.670;9.000;2022-10-31T14:46:52;18.50;99.90
30001;DHT22;16845;48.670;9.000;2022-10-31T14:49:37;18.50;99.90
30001;DHT22;16845;48.670;9.000;2022-10-31T14:52:08;18.50;99.90
30001;DHT22;16845;48.670;9.000;2022-10-31T14:54:41;18.40;99.90
30001;DHT22;16845;48.670;9.000;2022-10-31T14:57:16;18.30;99.90
30001;DHT22;16845;48.670;9.000;2022-10-31T14:59:49;18.20;99.90
30001;DHT22;16845;48.670;9.000;2022-10-31T15:02:24;18.00;99.90
30001;DHT22;16845;48.670;9.000;2022-10-31T15:04:54;17.80;99.90
30001;DHT22;16845;48.670;9.000;2022-10-31T15:07:25;17.70;99.90
30001;DHT22;16845;48.670;9.000;2022-10-31T15:09:58;17.50;99.90
30001;DHT22;16845;48.670;9.000;2022-10-31T15:12:28;17.20;99.90
30001;DHT22;16845;48.670;9.000;2022-10-31T15:15:10;17.00;99.90
30001;DHT22;16845;48.670;9.000;2022-10-31T15:17:44;16.90;99.90
30001;DHT22;16845;48.670;9.000;2022-10-31T15:20:18;16.70;99.90
30001;DHT22;16845;48.670;9.000;2022-10-31T15:22:47;16.50;99.90
30001;DHT22;16845;48.670;9.000;2022-10-31T15:25:18;16.30;99.90
30001;DHT22;16845;48.670;9.000;2022-10-31T15:27:48;16.10;99.90
30001;DHT22;16845;48.670;9.000;2022-10-31T15:30:19;16.00;99.90
30001;DHT22;16845;48.670;9.000;2022-10-31T15:32:50;15.80;99.90
30001;DHT22;16845;48.670;9.000;2022-10-31T15:35:26;15.70;99.90
30001;DHT22;16845;48.670;9.000;2022-10-31T15:37:56;15.60;99.90
30001;DHT22;16845;48.670;9.000;2022-10-31T15:40:26;15.60;99.90
30001;DHT22;16845;48.670;9.000;2022-10-31T15:42:57;15.50;99.90
30001;DHT22;16845;48.670;9.000;2022-10-31T15:45:28;15.50;99.90
30001;DHT22;16845;48.670;9.000;2022-10-31T15:48:00;15.50;99.90
30001;DHT22;16845;48.670;9.000;2022-10-31T15:50:31;15.40;99.90
30001;DHT22;16845;48.670;9.000;2022-10-31T15:53:00;15.30;99.90
30001;DHT22;16845;48.670;9.000;2022-10-31T15:55:31;15.30;99.90
30001;DHT22;16845;48.670;9.000;2022-10-31T15:58:02;15.20;99.90
30001;DHT22;16845;48.670;9.000;2022-10-31T16:00:33;15.10;99.90
30001;DHT22;16845;48.670;9.000;2022-10-31T16:03:08;15.00;99.90
30001;DHT22;16845;48.670;9.000;2022-10-31T16:05:47;14.90;99.90
30001;DHT22;16845;48.670;9.000;2022-10-31T16:08:31;14.80;99.90
30001;DHT22;16845;48.670;9.000;2022-10-31T16:11:13;14.70;99.90
30001;DHT22;16845;48.670;9.000;2022-10-31T16:13:53;14.60;99.90